createdAt,value
2023-01-13T00:01:16.735Z,3.35
2023-01-13T00:03:46.421Z,1.35
2023-01-13T00:06:16.336Z,2.70
2023-01-13T00:08:44.592Z,1.45
2023-01-13T00:11:12.621Z,2.92
2023-01-13T00:13:40.473Z,1.48
2023-01-13T00:16:12.285Z,1.10
2023-01-13T00:18:40.218Z,1.67
2023-01-13T00:21:13.415Z,1.60
2023-01-13T00:23:41.980Z,0.90
2023-01-13T00:26:12.156Z,2.17
2023-01-13T00:28:40.297Z,1.92
2023-01-13T00:31:10.995Z,1.85
2023-01-13T00:33:39.565Z,8.40
2023-01-13T00:36:12.760Z,2.65
2023-01-13T00:38:43.075Z,1.20
2023-01-13T00:41:13.610Z,5.50
2023-01-13T00:43:41.553Z,6.45
2023-01-13T00:46:11.065Z,1.33
2023-01-13T00:48:39.081Z,3.03
2023-01-13T00:51:11.836Z,1.73
2023-01-13T00:53:41.756Z,2.90
2023-01-13T00:56:14.433Z,3.13
2023-01-13T00:58:44.429Z,5.45
2023-01-13T01:01:15.239Z,2.35
2023-01-13T01:03:43.147Z,6.20
2023-01-13T01:06:15.885Z,11.13
2023-01-13T01:08:44.579Z,3.65
2023-01-13T01:11:14.697Z,5.22
2023-01-13T01:13:43.066Z,4.07
2023-01-13T01:16:12.924Z,5.20
2023-01-13T01:18:42.919Z,6.10
2023-01-13T01:21:13.172Z,5.60
2023-01-13T01:23:41.945Z,6.10
2023-01-13T01:26:13.063Z,5.32
2023-01-13T01:28:41.741Z,8.48
2023-01-13T01:31:10.989Z,5.97
2023-01-13T01:33:41.222Z,8.60
2023-01-13T01:36:10.750Z,6.15
2023-01-13T01:38:40.228Z,2.70
2023-01-13T01:41:08.389Z,7.43
2023-01-13T01:44:02.556Z,9.30
2023-01-13T01:46:33.395Z,8.07
2023-01-13T01:49:08.516Z,5.32
2023-01-13T01:51:40.171Z,9.27
2023-01-13T01:54:13.313Z,6.85
2023-01-13T01:56:44.505Z,8.18
2023-01-13T01:59:13.904Z,7.85
2023-01-13T02:01:43.090Z,13.40
2023-01-13T02:04:15.354Z,7.40
2023-01-13T02:06:45.465Z,9.73
2023-01-13T02:09:15.364Z,12.32
2023-01-13T02:12:00.677Z,6.30
2023-01-13T02:14:30.651Z,11.77
2023-01-13T02:17:19.547Z,5.97
2023-01-13T02:20:17.717Z,11.95
2023-01-13T02:23:02.505Z,12.02
2023-01-13T02:25:56.135Z,9.75
2023-01-13T02:29:04.716Z,11.52
2023-01-13T02:31:44.826Z,12.73
2023-01-13T02:34:21.589Z,7.93
2023-01-13T02:36:53.248Z,6.00
2023-01-13T02:39:29.259Z,6.13
2023-01-13T02:42:20.968Z,8.20
2023-01-13T02:44:52.947Z,5.45
2023-01-13T02:47:24.085Z,4.38
2023-01-13T02:49:57.178Z,8.90
2023-01-13T02:52:30.467Z,3.45
2023-01-13T02:55:04.178Z,12.52
2023-01-13T02:57:34.052Z,5.13
2023-01-13T03:00:04.551Z,5.07
2023-01-13T03:02:33.751Z,3.25
2023-01-13T03:05:01.996Z,5.85
2023-01-13T03:08:03.909Z,3.55
2023-01-13T03:10:47.388Z,3.33
2023-01-13T03:13:51.277Z,9.40
2023-01-13T03:16:29.361Z,6.13
2023-01-13T03:19:12.793Z,12.00
2023-01-13T03:21:45.158Z,6.70
2023-01-13T03:24:18.308Z,8.50
2023-01-13T03:26:50.473Z,4.78
2023-01-13T03:29:22.574Z,9.70
2023-01-13T03:31:58.548Z,6.32
2023-01-13T03:34:32.773Z,6.55
2023-01-13T03:37:04.873Z,6.55
2023-01-13T03:39:36.360Z,5.53
2023-01-13T03:42:09.844Z,9.45
2023-01-13T03:44:43.100Z,5.47
2023-01-13T03:47:18.376Z,8.25
2023-01-13T03:49:54.355Z,11.80
2023-01-13T03:52:26.351Z,4.60
2023-01-13T03:54:59.865Z,6.35
2023-01-13T03:57:36.190Z,6.60
2023-01-13T04:00:09.399Z,5.78
2023-01-13T04:02:48.926Z,10.10
2023-01-13T04:05:18.672Z,6.07
2023-01-13T04:07:52.057Z,14.20
2023-01-13T04:10:24.221Z,5.50
2023-01-13T04:13:02.921Z,4.70
2023-01-13T04:15:34.602Z,10.20
2023-01-13T04:18:18.539Z,7.15
2023-01-13T04:20:49.917Z,8.63
2023-01-13T04:23:18.796Z,10.02
2023-01-13T04:25:47.795Z,11.35
2023-01-13T04:28:16.227Z,7.78
2023-01-13T04:30:44.860Z,12.73
2023-01-13T04:33:13.495Z,12.07
2023-01-13T04:35:41.265Z,7.93
2023-01-13T04:38:12.831Z,8.77
2023-01-13T04:40:41.177Z,7.57
2023-01-13T04:43:09.302Z,9.25
2023-01-13T04:45:37.118Z,11.80
2023-01-13T04:48:05.186Z,8.57
2023-01-13T04:50:32.824Z,4.53
2023-01-13T04:53:01.384Z,11.45
2023-01-13T04:55:31.716Z,11.48
2023-01-13T04:58:03.561Z,12.30
2023-01-13T05:00:31.953Z,11.48
2023-01-13T05:03:00.274Z,10.80
2023-01-13T05:05:29.277Z,11.13
2023-01-13T05:07:57.216Z,13.65
2023-01-13T05:10:24.980Z,12.18
2023-01-13T05:13:11.443Z,7.25
2023-01-13T05:15:58.555Z,10.98
2023-01-13T05:18:26.435Z,7.78
2023-01-13T05:20:54.209Z,10.55
2023-01-13T05:23:39.493Z,12.48
2023-01-13T05:26:07.366Z,11.63
2023-01-13T05:28:36.475Z,14.43
2023-01-13T05:31:04.252Z,13.05
2023-01-13T05:33:33.686Z,8.05
2023-01-13T05:36:04.131Z,16.50
2023-01-13T05:38:31.822Z,12.38
2023-01-13T05:41:17.184Z,10.73
2023-01-13T05:43:46.253Z,13.55
2023-01-13T05:46:14.821Z,9.13
2023-01-13T05:48:43.663Z,6.90
2023-01-13T05:51:13.518Z,8.45
2023-01-13T05:53:41.955Z,7.47
2023-01-13T05:56:10.710Z,8.80
2023-01-13T05:58:38.715Z,9.02
2023-01-13T06:01:11.618Z,16.70
2023-01-13T06:03:39.541Z,8.35
2023-01-13T06:06:08.826Z,10.20
2023-01-13T06:08:39.417Z,19.02
2023-01-13T06:11:07.595Z,6.90
2023-01-13T06:13:35.442Z,11.52
2023-01-13T06:16:03.270Z,7.78
2023-01-13T06:18:32.619Z,10.52
2023-01-13T06:21:00.319Z,13.88
2023-01-13T06:23:28.091Z,5.90
2023-01-13T06:26:03.335Z,16.75
2023-01-13T06:28:31.699Z,10.15
2023-01-13T06:31:04.799Z,13.30
2023-01-13T06:33:38.162Z,16.58
2023-01-13T06:36:11.153Z,17.13
2023-01-13T06:38:44.248Z,9.00
2023-01-13T06:41:12.345Z,10.45
2023-01-13T06:43:40.178Z,6.85
2023-01-13T06:46:07.920Z,9.00
2023-01-13T06:48:37.448Z,12.00
2023-01-13T06:51:06.263Z,8.75
2023-01-13T06:53:34.091Z,12.23
2023-01-13T06:56:01.775Z,9.60
2023-01-13T06:58:29.501Z,6.80
2023-01-13T07:01:01.677Z,10.85
2023-01-13T07:03:29.485Z,12.90
2023-01-13T07:05:58.777Z,7.18
2023-01-13T07:08:26.471Z,15.10
2023-01-13T07:10:55.222Z,11.32
2023-01-13T07:13:40.374Z,10.35
2023-01-13T07:16:09.973Z,10.93
2023-01-13T07:18:37.942Z,10.93
2023-01-13T07:21:09.285Z,5.43
2023-01-13T07:23:39.462Z,7.13
2023-01-13T07:26:12.776Z,5.28
2023-01-13T07:28:41.685Z,8.95
2023-01-13T07:31:16.798Z,14.10
2023-01-13T07:33:44.992Z,9.10
2023-01-13T07:36:15.102Z,12.50
2023-01-13T07:38:44.407Z,8.30
2023-01-13T07:41:31.549Z,8.60
2023-01-13T07:44:00.334Z,8.15
2023-01-13T07:46:28.292Z,5.22
2023-01-13T07:48:55.998Z,16.58
2023-01-13T07:51:25.070Z,8.35
2023-01-13T07:53:52.733Z,7.88
2023-01-13T07:56:21.169Z,10.63
2023-01-13T07:58:50.984Z,9.40
2023-01-13T08:01:19.997Z,8.70
2023-01-13T08:03:47.985Z,14.30
2023-01-13T08:06:15.660Z,10.05
2023-01-13T08:08:44.715Z,9.35
2023-01-13T08:11:12.448Z,14.55
2023-01-13T08:13:40.123Z,8.98
2023-01-13T08:16:10.653Z,14.85
2023-01-13T08:18:39.399Z,9.43
2023-01-13T08:21:09.080Z,6.70
2023-01-13T08:23:37.073Z,12.80
2023-01-13T08:26:08.161Z,9.13
2023-01-13T08:28:36.433Z,9.60
2023-01-13T08:31:06.319Z,9.35
2023-01-13T08:33:34.802Z,11.07
2023-01-13T08:36:04.763Z,13.18
2023-01-13T08:38:32.752Z,11.65
2023-01-13T08:41:00.607Z,9.82
2023-01-13T08:43:29.716Z,9.27
2023-01-13T08:45:59.225Z,9.35
2023-01-13T08:48:29.715Z,11.70
2023-01-13T08:51:03.812Z,8.02
2023-01-13T08:53:32.042Z,8.02
2023-01-13T08:56:00.145Z,12.52
2023-01-13T08:58:29.323Z,14.32
2023-01-13T09:00:57.260Z,8.30
2023-01-13T09:03:25.491Z,11.68
2023-01-13T09:05:53.457Z,6.75
2023-01-13T09:08:21.280Z,16.30
2023-01-13T09:10:48.966Z,13.55
2023-01-13T09:13:17.033Z,9.55
2023-01-13T09:15:47.284Z,11.30
2023-01-13T09:18:15.460Z,11.80
2023-01-13T09:20:44.540Z,11.52
2023-01-13T09:23:12.224Z,15.00
2023-01-13T09:25:40.160Z,7.05
2023-01-13T09:28:08.994Z,13.13
2023-01-13T09:30:38.844Z,12.65
2023-01-13T09:33:25.340Z,18.30
2023-01-13T09:35:53.070Z,13.73
2023-01-13T09:38:20.857Z,11.23
2023-01-13T09:40:49.979Z,15.30
2023-01-13T09:43:39.590Z,21.58
2023-01-13T09:46:36.105Z,17.98
2023-01-13T09:49:05.819Z,15.68
2023-01-13T09:51:40.207Z,12.73
2023-01-13T09:54:15.702Z,12.30
2023-01-13T09:56:43.867Z,17.58
2023-01-13T09:59:13.115Z,22.75
2023-01-13T10:01:53.829Z,16.27
2023-01-13T10:04:28.982Z,16.75
2023-01-13T10:07:02.935Z,16.50
2023-01-13T10:09:43.591Z,13.85
2023-01-13T10:12:34.561Z,18.15
2023-01-13T10:15:02.439Z,24.73
2023-01-13T10:17:35.169Z,19.25
2023-01-13T10:20:16.601Z,20.23
2023-01-13T10:22:55.601Z,32.15
2023-01-13T10:25:31.418Z,14.20
2023-01-13T10:28:06.557Z,18.10
2023-01-13T10:30:36.734Z,16.85
2023-01-13T10:33:11.872Z,15.55
2023-01-13T10:35:53.447Z,16.05
2023-01-13T10:38:23.881Z,11.00
2023-01-13T10:40:53.855Z,9.68
2023-01-13T10:43:22.039Z,15.40
2023-01-13T10:45:56.706Z,18.60
2023-01-13T10:48:24.450Z,12.00
2023-01-13T10:50:53.509Z,14.98
2023-01-13T10:53:26.232Z,15.15
2023-01-13T10:56:02.331Z,12.43
2023-01-13T10:58:30.299Z,10.45
2023-01-13T11:01:02.823Z,19.50
2023-01-13T11:03:41.195Z,15.40
2023-01-13T11:06:20.210Z,10.55
2023-01-13T11:08:50.747Z,16.35
2023-01-13T11:11:38.353Z,25.17
2023-01-13T11:14:36.407Z,26.50
2023-01-13T11:17:13.244Z,11.70
2023-01-13T11:19:45.847Z,17.35
2023-01-13T11:22:21.157Z,15.70
2023-01-13T11:24:54.115Z,13.32
2023-01-13T11:27:25.900Z,21.50
2023-01-13T11:30:02.535Z,12.45
2023-01-13T11:32:35.805Z,16.15
2023-01-13T11:35:15.835Z,17.30
2023-01-13T11:37:51.172Z,13.00
2023-01-13T11:40:24.818Z,23.48
2023-01-13T11:43:00.878Z,13.48
2023-01-13T11:45:37.096Z,21.27
2023-01-13T11:48:05.787Z,17.55
2023-01-13T11:50:40.744Z,16.77
2023-01-13T11:53:24.949Z,13.80
2023-01-13T11:56:02.241Z,16.83
2023-01-13T11:58:50.992Z,15.88
2023-01-13T12:01:45.727Z,16.13
2023-01-13T12:04:25.410Z,15.98
2023-01-13T12:07:07.283Z,13.25
2023-01-13T12:09:50.701Z,13.98
2023-01-13T12:12:32.876Z,9.73
2023-01-13T12:15:44.741Z,14.40
2023-01-13T12:18:40.222Z,21.10
2023-01-13T12:21:18.955Z,20.42
2023-01-13T12:23:55.918Z,24.40
2023-01-13T12:26:25.273Z,15.40
2023-01-13T12:28:57.939Z,10.48
2023-01-13T12:31:27.686Z,7.82
2023-01-13T12:34:22.262Z,20.63
2023-01-13T12:36:59.259Z,13.45
2023-01-13T12:39:34.477Z,15.57
2023-01-13T12:42:29.603Z,13.50
2023-01-13T12:45:24.424Z,15.55
2023-01-13T12:47:52.456Z,12.65
2023-01-13T12:50:43.255Z,8.10
2023-01-13T12:53:31.660Z,7.97
2023-01-13T12:56:30.443Z,10.05
2023-01-13T12:59:38.644Z,8.77
2023-01-13T13:02:37.360Z,4.30
2023-01-13T13:05:37.050Z,7.30
2023-01-13T13:08:12.988Z,4.63
2023-01-13T13:10:47.469Z,6.75
2023-01-13T13:13:39.400Z,4.65
2023-01-13T13:16:48.722Z,14.10
2023-01-13T13:19:45.085Z,8.30
2023-01-13T13:22:45.445Z,17.38
2023-01-13T13:25:27.830Z,8.23
2023-01-13T13:28:16.791Z,10.75
2023-01-13T13:30:54.511Z,10.50
2023-01-13T13:33:40.516Z,9.88
2023-01-13T13:36:22.353Z,10.15
2023-01-13T13:39:23.265Z,16.65
2023-01-13T13:42:12.837Z,18.58
2023-01-13T13:45:00.375Z,20.80
2023-01-13T13:47:36.285Z,21.77
2023-01-13T13:50:13.735Z,12.38
2023-01-13T13:52:45.665Z,12.30
2023-01-13T13:55:18.681Z,11.65
2023-01-13T13:57:48.566Z,18.67
2023-01-13T14:00:25.877Z,15.18
2023-01-13T14:02:58.277Z,20.48
2023-01-13T14:05:29.230Z,15.63
2023-01-13T14:08:02.193Z,17.15
2023-01-13T14:10:32.447Z,7.85
2023-01-13T14:13:01.622Z,14.30
2023-01-13T14:15:34.235Z,11.85
2023-01-13T14:18:04.292Z,10.75
2023-01-13T14:20:34.470Z,13.15
2023-01-13T14:23:05.193Z,12.55
2023-01-13T14:25:37.007Z,18.52
2023-01-13T14:28:21.530Z,17.88
2023-01-13T14:30:50.976Z,15.77
2023-01-13T14:33:22.141Z,19.85
2023-01-13T14:36:13.002Z,14.98
2023-01-13T14:38:41.424Z,9.90
2023-01-13T14:41:17.061Z,19.60
2023-01-13T14:43:46.258Z,14.98
2023-01-13T14:46:15.088Z,16.17
2023-01-13T14:48:47.022Z,18.67
2023-01-13T14:51:26.328Z,10.48
2023-01-13T14:53:55.646Z,14.75
2023-01-13T14:56:42.503Z,19.48
2023-01-13T14:59:48.035Z,12.77
2023-01-13T15:02:44.625Z,12.90
2023-01-13T15:05:35.454Z,12.70
2023-01-13T15:08:09.688Z,13.57
2023-01-13T15:10:46.416Z,20.08
2023-01-13T15:13:27.567Z,19.42
2023-01-13T15:15:58.191Z,18.90
2023-01-13T15:18:26.125Z,13.50
2023-01-13T15:20:54.101Z,21.55
2023-01-13T15:23:23.258Z,21.25
2023-01-13T15:25:51.012Z,17.23
2023-01-13T15:28:21.443Z,22.70
2023-01-13T15:30:49.796Z,13.88
2023-01-13T15:33:18.060Z,16.58
2023-01-13T15:35:48.317Z,14.90
2023-01-13T15:38:18.842Z,16.13
2023-01-13T15:40:48.940Z,16.13
2023-01-13T15:43:35.732Z,16.65
2023-01-13T15:46:22.891Z,9.07
2023-01-13T15:48:53.135Z,13.77
2023-01-13T15:51:22.547Z,18.42
2023-01-13T15:53:50.239Z,18.02
2023-01-13T15:56:24.402Z,14.75
2023-01-13T15:58:52.037Z,15.65
2023-01-13T16:01:19.826Z,14.63
2023-01-13T16:03:47.591Z,15.13
2023-01-13T16:06:19.367Z,15.60
2023-01-13T16:08:47.301Z,10.57
2023-01-13T16:11:14.960Z,12.07
2023-01-13T16:13:43.922Z,14.35
2023-01-13T16:16:19.165Z,16.30
2023-01-13T16:18:47.348Z,25.55
2023-01-13T16:21:15.548Z,11.73
2023-01-13T16:23:43.349Z,13.95
2023-01-13T16:26:19.576Z,16.15
2023-01-13T16:28:49.029Z,17.40
2023-01-13T16:31:19.641Z,13.20
2023-01-13T16:33:47.446Z,23.13
2023-01-13T16:36:16.268Z,10.88
2023-01-13T16:38:44.354Z,8.63
2023-01-13T16:41:12.037Z,16.73
2023-01-13T16:43:39.880Z,12.00
2023-01-13T16:46:29.144Z,12.27
2023-01-13T16:49:02.387Z,13.10
2023-01-13T16:51:30.047Z,11.25
2023-01-13T16:53:57.759Z,18.23
2023-01-13T16:56:27.382Z,8.65
2023-01-13T16:58:57.053Z,15.63
2023-01-13T17:01:28.565Z,15.50
2023-01-13T17:03:57.335Z,13.35
2023-01-13T17:06:28.493Z,20.05
2023-01-13T17:09:01.297Z,12.80
2023-01-13T17:11:29.027Z,12.35
2023-01-13T17:13:56.800Z,14.40
2023-01-13T17:16:26.634Z,15.07
2023-01-13T17:18:54.796Z,9.95
2023-01-13T17:21:22.646Z,9.57
2023-01-13T17:23:50.395Z,14.90
2023-01-13T17:26:31.912Z,17.38
2023-01-13T17:29:01.248Z,19.02
2023-01-13T17:31:31.027Z,8.50
2023-01-13T17:33:58.982Z,10.10
2023-01-13T17:36:26.654Z,10.82
2023-01-13T17:38:55.240Z,14.82
2023-01-13T17:41:23.188Z,18.13
2023-01-13T17:43:50.866Z,14.77
2023-01-13T17:46:19.669Z,16.38
2023-01-13T17:48:49.542Z,20.33
2023-01-13T17:51:18.384Z,13.90
2023-01-13T17:53:46.460Z,17.88
2023-01-13T17:56:15.759Z,17.58
2023-01-13T17:58:45.251Z,19.52
2023-01-13T18:01:15.871Z,19.73
2023-01-13T18:03:43.635Z,22.98
2023-01-13T18:06:17.228Z,17.13
2023-01-13T18:08:44.892Z,15.52
2023-01-13T18:11:12.779Z,16.55
2023-01-13T18:13:41.119Z,20.27
2023-01-13T18:16:11.014Z,12.80
2023-01-13T18:18:39.750Z,12.57
2023-01-13T18:21:26.037Z,18.38
2023-01-13T18:24:11.749Z,12.50
2023-01-13T18:26:57.003Z,10.43
2023-01-13T18:29:24.974Z,15.00
2023-01-13T18:31:53.178Z,17.08
2023-01-13T18:34:21.760Z,15.38
2023-01-13T18:36:49.422Z,16.85
2023-01-13T18:39:18.831Z,11.55
2023-01-13T18:42:00.412Z,17.27
2023-01-13T18:44:28.009Z,14.40
2023-01-13T18:46:55.627Z,12.75
2023-01-13T18:49:23.352Z,11.25
2023-01-13T18:51:51.125Z,14.63
2023-01-13T18:54:20.558Z,11.73
2023-01-13T18:56:49.359Z,9.95
2023-01-13T18:59:17.251Z,8.65
2023-01-13T19:01:46.031Z,13.35
2023-01-13T19:04:16.226Z,12.52
2023-01-13T19:06:49.079Z,10.25
2023-01-13T19:09:17.486Z,14.32
2023-01-13T19:11:47.316Z,19.35
2023-01-13T19:14:33.863Z,13.65
2023-01-13T19:17:02.627Z,19.13
2023-01-13T19:19:31.237Z,11.05
2023-01-13T19:21:58.922Z,18.92
2023-01-13T19:24:26.912Z,10.43
2023-01-13T19:26:55.993Z,23.23
2023-01-13T19:29:23.752Z,11.70
2023-01-13T19:31:51.433Z,13.30
2023-01-13T19:34:19.617Z,11.90
2023-01-13T19:36:47.324Z,15.35
2023-01-13T19:39:15.032Z,13.05
2023-01-13T19:42:00.153Z,14.45
2023-01-13T19:44:46.648Z,17.77
2023-01-13T19:47:14.297Z,14.60
2023-01-13T19:49:41.925Z,10.32
2023-01-13T19:52:09.727Z,26.38
2023-01-13T19:54:37.442Z,14.35
2023-01-13T19:57:05.292Z,15.40
2023-01-13T19:59:35.357Z,8.88
2023-01-13T20:02:03.822Z,14.25
2023-01-13T20:04:38.299Z,18.10
2023-01-13T20:07:07.164Z,11.95
2023-01-13T20:09:36.208Z,14.55
2023-01-13T20:12:06.569Z,22.33
2023-01-13T20:14:35.683Z,12.32
2023-01-13T20:17:03.329Z,16.92
2023-01-13T20:19:31.129Z,14.55
2023-01-13T20:21:58.837Z,10.30
2023-01-13T20:24:27.049Z,11.68
2023-01-13T20:26:55.487Z,19.48
2023-01-13T20:29:23.411Z,11.00
2023-01-13T20:31:52.405Z,10.63
2023-01-13T20:34:20.543Z,11.60
2023-01-13T20:36:49.542Z,16.45
2023-01-13T20:39:19.044Z,18.10
2023-01-13T20:42:00.712Z,20.00
2023-01-13T20:44:29.189Z,16.30
2023-01-13T20:46:59.064Z,17.30
2023-01-13T20:49:28.169Z,17.92
2023-01-13T20:51:57.132Z,15.52
2023-01-13T20:54:25.294Z,11.73
2023-01-13T20:56:52.945Z,12.65
2023-01-13T20:59:20.861Z,18.05
2023-01-13T21:01:48.631Z,24.90
2023-01-13T21:04:17.650Z,15.48
2023-01-13T21:06:45.501Z,18.65
2023-01-13T21:09:13.154Z,19.02
2023-01-13T21:11:58.547Z,12.50
2023-01-13T21:14:45.065Z,20.27
2023-01-13T21:17:38.622Z,18.48
2023-01-13T21:20:09.038Z,23.15
2023-01-13T21:22:36.816Z,12.77
2023-01-13T21:25:04.984Z,15.13
2023-01-13T21:27:34.314Z,10.68
2023-01-13T21:30:01.957Z,16.50
2023-01-13T21:32:29.648Z,20.40
2023-01-13T21:34:58.796Z,21.10
2023-01-13T21:37:27.824Z,20.60
2023-01-13T21:39:55.544Z,20.17
2023-01-13T21:42:40.801Z,21.05
2023-01-13T21:45:28.472Z,12.25
2023-01-13T21:47:56.792Z,17.52
2023-01-13T21:50:27.845Z,14.30
2023-01-13T21:52:58.793Z,16.08
2023-01-13T21:55:28.429Z,13.85
2023-01-13T21:57:57.778Z,22.23
2023-01-13T22:00:27.223Z,24.65
2023-01-13T22:02:55.091Z,21.75
2023-01-13T22:05:25.037Z,13.65
2023-01-13T22:07:53.394Z,16.73
2023-01-13T22:10:24.203Z,28.60
2023-01-13T22:12:54.319Z,22.83
2023-01-13T22:15:25.805Z,18.50
2023-01-13T22:17:54.060Z,22.98
2023-01-13T22:20:22.655Z,21.52
2023-01-13T22:22:50.890Z,22.10
2023-01-13T22:25:20.013Z,16.75
2023-01-13T22:27:49.180Z,18.98
2023-01-13T22:30:18.768Z,18.15
2023-01-13T22:32:46.847Z,25.80
2023-01-13T22:35:16.479Z,24.65
2023-01-13T22:37:44.384Z,24.92
2023-01-13T22:40:13.258Z,15.15
2023-01-13T22:42:42.173Z,21.10
2023-01-13T22:45:14.068Z,17.30
2023-01-13T22:47:41.995Z,15.35
2023-01-13T22:50:12.461Z,21.17
2023-01-13T22:52:40.717Z,24.73
2023-01-13T22:55:09.295Z,21.13
2023-01-13T22:57:47.196Z,20.92
2023-01-13T23:00:19.449Z,16.58
2023-01-13T23:02:47.326Z,26.80
2023-01-13T23:05:15.236Z,18.63
2023-01-13T23:07:42.892Z,17.70
2023-01-13T23:10:11.614Z,25.67
2023-01-13T23:12:39.287Z,26.55
2023-01-13T23:15:07.691Z,20.80
2023-01-13T23:17:36.817Z,21.63
2023-01-13T23:20:04.860Z,18.58
2023-01-13T23:22:33.748Z,19.38
2023-01-13T23:25:01.404Z,29.23
2023-01-13T23:27:29.103Z,22.73
2023-01-13T23:29:56.751Z,24.08
2023-01-13T23:32:24.362Z,32.55
2023-01-13T23:34:53.355Z,22.13
2023-01-13T23:37:21.057Z,26.88
2023-01-13T23:39:49.025Z,26.60
2023-01-13T23:42:16.699Z,21.25
2023-01-13T23:44:44.332Z,24.88
2023-01-13T23:47:12.563Z,20.17
2023-01-13T23:49:40.845Z,24.25
2023-01-13T23:52:09.904Z,19.17
2023-01-13T23:54:37.773Z,24.05
2023-01-13T23:57:05.570Z,23.60
2023-01-13T23:59:33.248Z,23.15
